createdAt,value
2019-01-23T00:01:37.001Z,99.90
2019-01-23T00:04:06.364Z,99.90
2019-01-23T00:06:35.721Z,99.90
2019-01-23T00:09:07.084Z,99.90
2019-01-23T00:11:36.414Z,99.90
2019-01-23T00:14:06.267Z,99.90
2019-01-23T00:16:35.609Z,99.90
2019-01-23T00:19:04.971Z,99.90
2019-01-23T00:21:34.363Z,99.90
2019-01-23T00:24:03.724Z,99.90
2019-01-23T00:26:33.059Z,99.90
2019-01-23T00:29:02.391Z,99.90
2019-01-23T00:31:31.719Z,99.90
2019-01-23T00:34:01.086Z,99.90
2019-01-23T00:36:30.459Z,99.90
2019-01-23T00:38:59.830Z,99.90
2019-01-23T00:41:29.162Z,99.90
2019-01-23T00:43:58.488Z,99.90
2019-01-23T00:46:27.876Z,99.90
2019-01-23T00:48:58.881Z,99.90
2019-01-23T00:51:28.223Z,99.90
2019-01-23T00:53:58.032Z,99.90
2019-01-23T00:56:27.393Z,99.90
2019-01-23T00:58:56.751Z,99.90
2019-01-23T01:01:26.068Z,99.90
2019-01-23T01:03:55.750Z,99.90
2019-01-23T01:06:25.119Z,99.90
2019-01-23T01:08:54.540Z,99.90
2019-01-23T01:11:23.912Z,99.90
2019-01-23T01:13:53.235Z,99.90
2019-01-23T01:16:22.551Z,99.90
2019-01-23T01:18:51.892Z,99.90
2019-01-23T01:21:21.288Z,99.90
2019-01-23T01:23:50.613Z,99.90
2019-01-23T01:26:19.983Z,99.90
2019-01-23T01:28:55.976Z,99.90
2019-01-23T01:31:22.283Z,99.90
2019-01-23T01:33:51.704Z,99.90
2019-01-23T01:36:21.088Z,99.90
2019-01-23T01:38:50.596Z,99.90
2019-01-23T01:41:19.951Z,99.90
2019-01-23T01:43:49.352Z,99.90
2019-01-23T01:46:18.768Z,99.90
2019-01-23T01:48:48.128Z,99.90
2019-01-23T01:51:17.574Z,99.90
2019-01-23T01:53:47.137Z,99.90
2019-01-23T01:56:16.747Z,99.90
2019-01-23T01:58:46.473Z,99.90
2019-01-23T02:01:16.570Z,99.90
2019-01-23T02:03:46.123Z,99.90
2019-01-23T02:06:16.267Z,99.90
2019-01-23T02:08:45.717Z,99.90
2019-01-23T02:11:15.516Z,99.90
2019-01-23T02:13:45.406Z,99.90
2019-01-23T02:16:14.879Z,99.90
2019-01-23T02:18:44.682Z,99.90
2019-01-23T02:21:14.507Z,99.90
2019-01-23T02:23:44.014Z,99.90
2019-01-23T02:26:13.619Z,99.90
2019-01-23T02:28:43.301Z,99.90
2019-01-23T02:31:12.630Z,99.90
2019-01-23T02:33:41.986Z,99.90
2019-01-23T02:36:11.299Z,99.90
2019-01-23T02:38:40.664Z,99.90
2019-01-23T02:41:10.028Z,99.90
2019-01-23T02:43:39.369Z,99.90
2019-01-23T02:46:08.775Z,99.90
2019-01-23T02:48:38.139Z,99.90
2019-01-23T02:51:07.598Z,99.90
2019-01-23T02:53:37.320Z,99.90
2019-01-23T02:56:07.512Z,99.90
2019-01-23T02:58:37.487Z,99.90
2019-01-23T03:01:07.312Z,99.90
2019-01-23T03:03:37.120Z,99.90
2019-01-23T03:06:07.176Z,99.90
2019-01-23T03:08:36.787Z,99.90
2019-01-23T03:11:06.753Z,99.90
2019-01-23T03:13:36.519Z,99.90
2019-01-23T03:16:07.843Z,99.90
2019-01-23T03:18:37.333Z,99.90
2019-01-23T03:21:07.470Z,99.90
2019-01-23T03:23:37.478Z,99.90
2019-01-23T03:26:06.972Z,99.90
2019-01-23T03:28:36.476Z,99.90
2019-01-23T03:31:05.912Z,99.90
2019-01-23T03:33:35.344Z,99.90
2019-01-23T03:36:05.616Z,99.90
2019-01-23T03:38:35.528Z,99.90
2019-01-23T03:41:05.284Z,99.90
2019-01-23T03:43:34.681Z,99.90
2019-01-23T03:46:04.548Z,99.90
2019-01-23T03:48:34.102Z,99.90
2019-01-23T03:51:04.095Z,99.90
2019-01-23T03:53:33.821Z,99.90
2019-01-23T03:56:04.649Z,99.90
2019-01-23T03:58:34.935Z,99.90
2019-01-23T04:01:04.783Z,99.90
2019-01-23T04:03:34.791Z,99.90
2019-01-23T04:06:05.044Z,99.90
2019-01-23T04:08:34.852Z,99.90
2019-01-23T04:11:05.684Z,99.90
2019-01-23T04:13:36.080Z,99.90
2019-01-23T04:16:05.949Z,99.90
2019-01-23T04:18:35.847Z,99.90
2019-01-23T04:21:05.867Z,99.90
2019-01-23T04:23:36.835Z,99.90
2019-01-23T04:26:07.163Z,99.90
2019-01-23T04:28:37.257Z,99.90
2019-01-23T04:31:08.963Z,99.90
2019-01-23T04:33:39.410Z,99.90
2019-01-23T04:36:09.280Z,99.90
2019-01-23T04:38:39.713Z,99.90
2019-01-23T04:41:12.833Z,99.90
2019-01-23T04:43:42.703Z,99.90
2019-01-23T04:46:12.570Z,99.90
2019-01-23T04:48:42.558Z,99.90
2019-01-23T04:51:34.527Z,99.90
2019-01-23T04:54:04.555Z,99.90
2019-01-23T04:56:34.453Z,99.90
2019-01-23T04:59:04.892Z,99.90
2019-01-23T05:01:35.107Z,99.90
2019-01-23T05:04:26.388Z,99.90
2019-01-23T05:06:56.381Z,99.90
2019-01-23T05:09:27.425Z,99.90
2019-01-23T05:11:57.959Z,99.90
2019-01-23T05:14:28.551Z,99.90
2019-01-23T05:16:58.917Z,99.90
2019-01-23T05:19:29.456Z,99.90
2019-01-23T05:21:59.539Z,99.90
2019-01-23T05:24:29.752Z,99.90
2019-01-23T05:27:03.424Z,99.90
2019-01-23T05:29:33.673Z,99.90
2019-01-23T05:32:03.716Z,99.90
2019-01-23T05:34:33.727Z,99.90
2019-01-23T05:37:05.419Z,99.90
2019-01-23T05:39:35.496Z,99.90
2019-01-23T05:42:07.735Z,99.90
2019-01-23T05:44:38.008Z,99.90
2019-01-23T05:47:07.928Z,99.90
2019-01-23T05:49:38.085Z,99.90
2019-01-23T05:52:08.062Z,99.90
2019-01-23T05:54:38.038Z,99.90
2019-01-23T05:57:08.067Z,99.90
2019-01-23T05:59:38.153Z,99.90
2019-01-23T06:02:08.115Z,99.90
2019-01-23T06:04:38.603Z,99.90
2019-01-23T06:07:08.501Z,99.90
2019-01-23T06:09:38.461Z,99.90
2019-01-23T06:12:08.936Z,99.90
2019-01-23T06:14:39.574Z,99.90
2019-01-23T06:17:09.627Z,99.90
2019-01-23T06:19:39.500Z,99.90
2019-01-23T06:22:09.738Z,99.90
2019-01-23T06:24:39.550Z,99.90
2019-01-23T06:27:09.735Z,99.90
2019-01-23T06:29:40.627Z,99.90
2019-01-23T06:32:10.912Z,99.90
2019-01-23T06:34:40.336Z,99.90
2019-01-23T06:37:09.826Z,99.90
2019-01-23T06:39:39.242Z,99.90
2019-01-23T06:42:08.624Z,99.90
2019-01-23T06:44:38.407Z,99.90
2019-01-23T06:47:07.825Z,99.90
2019-01-23T06:49:37.285Z,99.90
2019-01-23T06:52:06.799Z,99.90
2019-01-23T06:54:36.148Z,99.90
2019-01-23T06:57:05.560Z,99.90
2019-01-23T06:59:35.022Z,99.90
2019-01-23T07:02:04.869Z,99.90
2019-01-23T07:04:34.231Z,99.90
2019-01-23T07:07:03.638Z,99.90
2019-01-23T07:09:33.105Z,99.90
2019-01-23T07:12:02.436Z,99.90
2019-01-23T07:14:31.788Z,99.90
2019-01-23T07:17:03.124Z,99.90
2019-01-23T07:19:32.360Z,99.90
2019-01-23T07:22:01.695Z,99.90
2019-01-23T07:24:31.135Z,99.90
2019-01-23T07:27:00.515Z,99.90
2019-01-23T07:29:29.883Z,99.90
2019-01-23T07:31:59.318Z,99.90
2019-01-23T07:34:28.664Z,99.90
2019-01-23T07:36:58.031Z,99.90
2019-01-23T07:39:27.445Z,99.90
2019-01-23T07:41:57.128Z,99.90
2019-01-23T07:44:26.763Z,99.90
2019-01-23T07:46:56.115Z,99.90
2019-01-23T07:49:25.468Z,99.90
2019-01-23T07:51:54.819Z,99.90
2019-01-23T07:54:24.193Z,99.90
2019-01-23T07:56:53.559Z,99.90
2019-01-23T07:59:22.975Z,99.90
2019-01-23T08:01:52.331Z,99.90
2019-01-23T08:04:21.709Z,99.90
2019-01-23T08:06:51.105Z,99.90
2019-01-23T08:09:20.445Z,99.90
2019-01-23T08:11:49.803Z,99.90
2019-01-23T08:14:22.153Z,99.90
2019-01-23T08:16:52.617Z,99.90
2019-01-23T08:19:21.929Z,99.90
2019-01-23T08:21:51.297Z,99.90
2019-01-23T08:24:20.652Z,99.90
2019-01-23T08:26:50.038Z,99.90
2019-01-23T08:29:19.391Z,99.90
2019-01-23T08:31:48.800Z,99.90
2019-01-23T08:34:18.131Z,99.90
2019-01-23T08:36:47.487Z,99.90
2019-01-23T08:39:16.820Z,99.90
2019-01-23T08:41:46.270Z,99.90
2019-01-23T08:44:15.655Z,99.90
2019-01-23T08:46:45.057Z,99.90
2019-01-23T08:49:14.524Z,99.90
2019-01-23T08:51:43.938Z,99.90
2019-01-23T08:54:13.279Z,99.90
2019-01-23T08:56:42.664Z,99.90
2019-01-23T08:59:12.028Z,99.90
2019-01-23T09:01:41.413Z,99.90
2019-01-23T09:04:10.943Z,99.90
2019-01-23T09:06:40.272Z,99.90
2019-01-23T09:09:09.706Z,99.90
2019-01-23T09:11:39.035Z,99.90
2019-01-23T09:14:08.403Z,99.90
2019-01-23T09:16:37.719Z,99.90
2019-01-23T09:19:08.724Z,99.90
2019-01-23T09:21:39.092Z,99.90
2019-01-23T09:24:08.491Z,99.90
2019-01-23T09:26:37.886Z,99.90
2019-01-23T09:29:07.255Z,99.90
2019-01-23T09:31:53.204Z,99.90
2019-01-23T09:34:52.161Z,99.90
2019-01-23T09:38:13.447Z,99.90
2019-01-23T09:40:54.215Z,99.90
2019-01-23T09:44:04.036Z,99.90
2019-01-23T09:47:29.674Z,99.90
2019-01-23T09:50:36.444Z,99.90
2019-01-23T09:53:33.429Z,99.90
2019-01-23T09:56:03.639Z,99.90
2019-01-23T09:58:34.775Z,99.90
2019-01-23T10:01:06.745Z,98.40
2019-01-23T10:03:35.911Z,99.90
2019-01-23T10:06:05.640Z,99.90
2019-01-23T10:08:35.011Z,99.90
2019-01-23T10:11:04.464Z,99.90
2019-01-23T10:13:34.272Z,99.90
2019-01-23T10:16:18.202Z,99.90
2019-01-23T10:18:47.927Z,97.30
2019-01-23T10:21:18.203Z,97.10
2019-01-23T10:23:47.572Z,97.90
2019-01-23T10:26:18.680Z,99.90
2019-01-23T10:28:48.155Z,99.90
2019-01-23T10:31:18.040Z,99.90
2019-01-23T10:33:47.424Z,99.90
2019-01-23T10:36:17.207Z,99.90
2019-01-23T10:38:46.890Z,99.90
2019-01-23T10:41:16.419Z,99.90
2019-01-23T10:43:45.825Z,99.90
2019-01-23T10:46:15.241Z,99.90
2019-01-23T10:48:45.140Z,99.90
2019-01-23T10:51:14.476Z,99.90
2019-01-23T10:53:44.217Z,99.90
2019-01-23T10:56:13.988Z,99.90
2019-01-23T10:58:44.796Z,99.90
2019-01-23T11:01:14.638Z,99.90
2019-01-23T11:03:44.304Z,99.90
2019-01-23T11:06:14.824Z,99.90
2019-01-23T11:08:44.964Z,99.90
2019-01-23T11:11:14.466Z,99.90
2019-01-23T11:13:43.960Z,99.90
2019-01-23T11:16:13.850Z,99.90
2019-01-23T11:18:44.151Z,99.90
2019-01-23T11:21:14.029Z,99.90
2019-01-23T11:23:45.415Z,99.90
2019-01-23T11:26:15.140Z,99.90
2019-01-23T11:28:46.241Z,99.90
2019-01-23T11:31:20.296Z,99.90
2019-01-23T11:33:47.887Z,99.90
2019-01-23T11:36:18.409Z,99.90
2019-01-23T11:38:48.688Z,99.90
2019-01-23T11:41:20.132Z,99.90
2019-01-23T11:43:50.203Z,99.90
2019-01-23T11:46:20.065Z,99.90
2019-01-23T11:48:49.936Z,99.90
2019-01-23T11:51:19.996Z,99.90
2019-01-23T11:53:49.779Z,99.90
2019-01-23T11:56:19.469Z,99.90
2019-01-23T11:58:49.350Z,99.90
2019-01-23T12:01:19.625Z,99.90
2019-01-23T12:03:49.739Z,99.90
2019-01-23T12:06:19.538Z,99.90
2019-01-23T12:08:49.542Z,99.90
2019-01-23T12:11:19.546Z,99.90
2019-01-23T12:13:50.686Z,99.90
2019-01-23T12:16:21.084Z,99.90
2019-01-23T12:18:51.047Z,99.90
2019-01-23T12:21:21.226Z,99.90
2019-01-23T12:23:51.026Z,99.90
2019-01-23T12:26:21.321Z,99.90
2019-01-23T12:28:51.337Z,99.90
2019-01-23T12:31:20.744Z,99.90
2019-01-23T12:33:50.100Z,99.90
2019-01-23T12:36:19.484Z,99.90
2019-01-23T12:38:48.840Z,99.90
2019-01-23T12:41:18.193Z,99.90
2019-01-23T12:43:47.521Z,99.90
2019-01-23T12:46:16.875Z,99.90
2019-01-23T12:48:46.197Z,99.90
2019-01-23T12:51:15.594Z,99.90
2019-01-23T12:53:44.941Z,99.90
2019-01-23T12:56:14.247Z,99.90
2019-01-23T12:58:43.660Z,99.90
2019-01-23T13:01:13.020Z,99.90
2019-01-23T13:03:42.441Z,99.90
2019-01-23T13:06:13.010Z,99.90
2019-01-23T13:08:54.576Z,99.90
2019-01-23T13:11:23.961Z,99.90
2019-01-23T13:13:53.332Z,99.90
2019-01-23T13:16:22.656Z,99.90
2019-01-23T13:18:52.094Z,99.90
2019-01-23T13:21:21.408Z,99.90
2019-01-23T13:23:50.764Z,99.90
2019-01-23T13:26:20.092Z,99.90
2019-01-23T13:28:50.897Z,99.90
2019-01-23T13:31:20.256Z,99.90
2019-01-23T13:33:50.015Z,99.90
2019-01-23T13:36:19.393Z,99.90
2019-01-23T13:38:48.807Z,99.90
2019-01-23T13:41:18.517Z,99.90
2019-01-23T13:43:47.931Z,99.90
2019-01-23T13:46:17.403Z,99.90
2019-01-23T13:48:46.943Z,99.90
2019-01-23T13:51:16.365Z,99.90
2019-01-23T13:53:45.765Z,99.90
2019-01-23T13:56:15.139Z,99.90
2019-01-23T13:58:44.464Z,99.90
2019-01-23T14:01:13.823Z,99.90
2019-01-23T14:03:43.137Z,99.90
2019-01-23T14:06:12.592Z,99.90
2019-01-23T14:08:41.948Z,99.90
2019-01-23T14:11:11.343Z,99.90
2019-01-23T14:13:40.696Z,99.90
2019-01-23T14:16:10.047Z,99.90
2019-01-23T14:18:39.490Z,99.90
2019-01-23T14:21:08.913Z,99.90
2019-01-23T14:23:38.351Z,99.90
2019-01-23T14:26:07.748Z,99.90
2019-01-23T14:28:37.101Z,99.90
2019-01-23T14:31:06.979Z,99.90
2019-01-23T14:33:36.419Z,99.90
2019-01-23T14:36:07.040Z,99.90
2019-01-23T14:38:36.355Z,99.90
2019-01-23T14:41:05.684Z,99.90
2019-01-23T14:43:35.025Z,99.90
2019-01-23T14:46:04.423Z,99.90
2019-01-23T14:48:33.772Z,99.90
2019-01-23T14:51:03.218Z,99.90
2019-01-23T14:53:32.520Z,99.90
2019-01-23T14:56:01.854Z,99.90
2019-01-23T14:58:31.255Z,99.90
2019-01-23T15:01:00.652Z,99.90
2019-01-23T15:03:30.008Z,99.90
2019-01-23T15:05:59.419Z,99.90
2019-01-23T15:08:28.801Z,99.90
2019-01-23T15:10:58.230Z,99.90
2019-01-23T15:13:27.616Z,99.90
2019-01-23T15:15:56.984Z,99.90
2019-01-23T15:18:26.411Z,99.90
2019-01-23T15:20:55.864Z,99.90
2019-01-23T15:23:25.336Z,99.90
2019-01-23T15:25:54.703Z,99.90
2019-01-23T15:28:33.273Z,99.90
2019-01-23T15:31:17.357Z,99.90
2019-01-23T15:34:29.256Z,99.90
2019-01-23T15:37:22.067Z,99.90
2019-01-23T15:39:54.184Z,99.90
2019-01-23T15:42:23.657Z,99.90
2019-01-23T15:45:00.719Z,99.90
2019-01-23T15:47:50.996Z,99.90
2019-01-23T15:50:27.596Z,99.90
2019-01-23T15:52:56.956Z,99.90
2019-01-23T15:55:33.418Z,99.90
2019-01-23T15:58:02.794Z,99.90
2019-01-23T16:00:47.449Z,99.90
2019-01-23T16:03:32.191Z,99.90
2019-01-23T16:06:01.819Z,99.90
2019-01-23T16:08:31.450Z,99.90
2019-01-23T16:11:00.895Z,99.90
2019-01-23T16:13:30.358Z,99.90
2019-01-23T16:15:59.777Z,99.90
2019-01-23T16:18:29.180Z,99.90
2019-01-23T16:20:59.534Z,99.90
2019-01-23T16:23:28.994Z,98.60
2019-01-23T16:25:58.357Z,97.70
2019-01-23T16:28:27.731Z,99.00
2019-01-23T16:30:57.096Z,99.50
2019-01-23T16:33:26.485Z,99.90
2019-01-23T16:35:55.884Z,99.90
2019-01-23T16:38:25.334Z,99.90
2019-01-23T16:40:54.742Z,99.90
2019-01-23T16:43:24.080Z,99.90
2019-01-23T16:45:53.722Z,97.60
2019-01-23T16:48:23.246Z,99.20
2019-01-23T16:50:52.672Z,99.90
2019-01-23T16:53:23.231Z,99.90
2019-01-23T16:55:52.593Z,99.90
2019-01-23T16:58:21.956Z,99.90
2019-01-23T17:00:51.321Z,97.20
2019-01-23T17:03:21.733Z,96.20
2019-01-23T17:05:51.064Z,96.30
2019-01-23T17:08:20.567Z,99.90
2019-01-23T17:10:49.993Z,98.70
2019-01-23T17:13:19.433Z,97.00
2019-01-23T17:15:48.888Z,96.80
2019-01-23T17:18:18.333Z,96.00
2019-01-23T17:20:49.506Z,95.60
2019-01-23T17:23:18.891Z,95.60
2019-01-23T17:25:48.310Z,95.40
2019-01-23T17:28:18.313Z,95.50
2019-01-23T17:30:47.729Z,99.90
2019-01-23T17:33:17.122Z,97.20
2019-01-23T17:35:46.582Z,96.20
2019-01-23T17:38:15.952Z,95.00
2019-01-23T17:40:47.176Z,94.50
2019-01-23T17:43:16.773Z,95.10
2019-01-23T17:45:46.165Z,94.20
2019-01-23T17:48:16.178Z,94.70
2019-01-23T17:50:45.564Z,94.30
2019-01-23T17:53:14.958Z,95.00
2019-01-23T17:55:44.548Z,95.80
2019-01-23T17:58:14.956Z,94.10
2019-01-23T18:00:51.284Z,94.70
2019-01-23T18:03:20.642Z,95.40
2019-01-23T18:05:51.262Z,96.60
2019-01-23T18:08:21.057Z,99.90
2019-01-23T18:10:50.869Z,99.00
2019-01-23T18:13:20.374Z,96.80
2019-01-23T18:15:50.059Z,96.10
2019-01-23T18:18:19.622Z,95.60
2019-01-23T18:20:49.100Z,94.00
2019-01-23T18:23:18.493Z,93.70
2019-01-23T18:25:48.075Z,94.30
2019-01-23T18:28:17.421Z,94.60
2019-01-23T18:31:00.398Z,95.10
2019-01-23T18:33:35.564Z,95.00
2019-01-23T18:36:28.786Z,95.40
2019-01-23T18:39:21.063Z,94.20
2019-01-23T18:42:23.026Z,94.80
2019-01-23T18:45:10.540Z,94.90
2019-01-23T18:48:29.878Z,95.40
2019-01-23T18:51:33.046Z,93.80
2019-01-23T18:54:02.416Z,94.10
2019-01-23T18:56:31.974Z,94.00
2019-01-23T18:59:01.355Z,93.80
2019-01-23T19:01:30.996Z,93.40
2019-01-23T19:04:00.348Z,93.70
2019-01-23T19:06:29.972Z,95.50
2019-01-23T19:08:59.354Z,93.30
2019-01-23T19:11:28.921Z,93.00
2019-01-23T19:13:58.515Z,93.70
2019-01-23T19:16:27.992Z,95.80
2019-01-23T19:18:57.494Z,94.40
2019-01-23T19:21:26.977Z,95.90
2019-01-23T19:23:56.542Z,93.00
2019-01-23T19:26:25.948Z,93.30
2019-01-23T19:28:55.353Z,93.60
2019-01-23T19:31:24.778Z,95.00
2019-01-23T19:33:54.989Z,95.60
2019-01-23T19:36:24.329Z,95.30
2019-01-23T19:38:54.900Z,99.20
2019-01-23T19:41:24.332Z,99.90
2019-01-23T19:43:54.052Z,98.90
2019-01-23T19:46:23.429Z,98.80
2019-01-23T19:48:52.847Z,96.70
2019-01-23T19:51:22.402Z,99.90
2019-01-23T19:53:53.311Z,99.90
2019-01-23T19:56:22.757Z,96.80
2019-01-23T19:58:52.259Z,96.40
2019-01-23T20:01:21.842Z,96.40
2019-01-23T20:03:51.225Z,96.60
2019-01-23T20:06:20.884Z,97.20
2019-01-23T20:08:50.664Z,97.60
2019-01-23T20:11:21.248Z,97.70
2019-01-23T20:13:50.782Z,99.90
2019-01-23T20:16:20.165Z,97.20
2019-01-23T20:18:49.602Z,96.40
2019-01-23T20:21:19.141Z,95.90
2019-01-23T20:23:48.680Z,96.40
2019-01-23T20:26:18.207Z,98.20
2019-01-23T20:28:47.576Z,96.60
2019-01-23T20:31:18.216Z,97.20
2019-01-23T20:33:47.591Z,96.90
2019-01-23T20:36:17.265Z,97.10
2019-01-23T20:38:46.704Z,97.10
2019-01-23T20:41:17.089Z,97.20
2019-01-23T20:43:46.533Z,98.30
2019-01-23T20:46:15.979Z,97.00
2019-01-23T20:48:45.652Z,97.20
2019-01-23T20:51:15.223Z,97.00
2019-01-23T20:53:44.677Z,97.40
2019-01-23T20:56:14.116Z,99.90
2019-01-23T20:58:43.541Z,99.90
2019-01-23T21:01:16.495Z,99.70
2019-01-23T21:03:46.192Z,98.50
2019-01-23T21:06:15.690Z,98.40
2019-01-23T21:08:48.029Z,98.90
2019-01-23T21:11:17.465Z,99.20
2019-01-23T21:13:46.903Z,98.70
2019-01-23T21:16:16.390Z,99.20
2019-01-23T21:18:46.936Z,98.80
2019-01-23T21:21:16.398Z,99.10
2019-01-23T21:23:47.192Z,99.30
2019-01-23T21:26:16.665Z,99.50
2019-01-23T21:28:46.351Z,99.40
2019-01-23T21:31:16.863Z,99.60
2019-01-23T21:33:46.415Z,99.40
2019-01-23T21:36:15.800Z,99.90
2019-01-23T21:38:45.284Z,99.90
2019-01-23T21:41:14.739Z,99.90
2019-01-23T21:43:44.134Z,99.80
2019-01-23T21:46:13.550Z,99.90
2019-01-23T21:48:43.044Z,99.90
2019-01-23T21:51:13.838Z,99.90
2019-01-23T21:53:43.304Z,99.90
2019-01-23T21:56:14.228Z,99.90
2019-01-23T21:58:43.561Z,99.90
2019-01-23T22:01:13.046Z,99.90
2019-01-23T22:03:49.060Z,99.90
2019-01-23T22:06:13.587Z,99.90
2019-01-23T22:08:42.961Z,99.10
2019-01-23T22:11:12.335Z,99.90
2019-01-23T22:13:41.786Z,99.90
2019-01-23T22:16:11.248Z,99.20
2019-01-23T22:18:40.952Z,98.80
2019-01-23T22:21:10.393Z,98.30
2019-01-23T22:23:39.821Z,98.50
2019-01-23T22:26:09.257Z,98.40
2019-01-23T22:28:38.940Z,99.10
2019-01-23T22:31:08.469Z,97.80
2019-01-23T22:33:37.827Z,97.80
2019-01-23T22:36:07.212Z,98.10
2019-01-23T22:38:36.587Z,98.10
2019-01-23T22:41:06.318Z,98.10
2019-01-23T22:43:37.119Z,97.70
2019-01-23T22:46:06.587Z,97.40
2019-01-23T22:48:35.977Z,97.40
2019-01-23T22:51:07.152Z,97.10
2019-01-23T22:53:36.494Z,96.80
2019-01-23T22:56:06.018Z,96.80
2019-01-23T22:58:35.341Z,96.90
2019-01-23T23:01:32.704Z,97.30
2019-01-23T23:04:03.355Z,97.80
2019-01-23T23:06:33.066Z,97.00
2019-01-23T23:09:02.432Z,96.50
2019-01-23T23:11:31.837Z,96.30
2019-01-23T23:14:01.186Z,96.70
2019-01-23T23:16:30.584Z,96.40
2019-01-23T23:18:59.956Z,96.00
2019-01-23T23:21:29.393Z,96.60
2019-01-23T23:23:58.708Z,97.30
2019-01-23T23:26:28.072Z,97.10
2019-01-23T23:28:57.428Z,96.00
2019-01-23T23:31:26.814Z,95.60
2019-01-23T23:33:56.175Z,95.70
2019-01-23T23:36:25.556Z,96.30
2019-01-23T23:38:54.912Z,96.50
2019-01-23T23:41:24.259Z,96.00
2019-01-23T23:43:53.615Z,96.30
2019-01-23T23:46:22.988Z,96.60
2019-01-23T23:48:52.347Z,96.90
2019-01-23T23:51:21.703Z,96.80
2019-01-23T23:53:51.052Z,96.40
2019-01-23T23:56:20.413Z,97.10
2019-01-23T23:58:49.780Z,96.10
